sensor_id;sensor_type;location;lat;lon;timestamp;pressure;altitude;pressure_sealevel;temperature;humidity
67052;BME280;53957;47.222;18.670;2023-04-20T00:02:04;100118.44;;;6.75;100.00
67052;BME280;53957;47.222;18.670;2023-04-20T00:05:08;100109.38;;;6.66;100.00
67052;BME280;53957;47.222;18.670;2023-04-20T00:08:12;100110.69;;;6.58;100.00
67052;BME280;53957;47.222;18.670;2023-04-20T00:11:15;100114.87;;;6.49;100.00
67052;BME280;53957;47.222;18.670;2023-04-20T00:14:18;100112.75;;;6.46;100.00
67052;BME280;53957;47.222;18.670;2023-04-20T00:17:22;100109.97;;;6.73;100.00
67052;BME280;53957;47.222;18.670;2023-04-20T00:20:25;100107.06;;;6.80;100.00
67052;BME280;53957;47.222;18.670;2023-04-20T00:23:29;100100.44;;;6.83;100.00
67052;BME280;53957;47.222;18.670;2023-04-20T00:26:51;100103.12;;;6.88;100.00
67052;BME280;53957;47.222;18.670;2023-04-20T00:29:54;100109.22;;;6.99;100.00
67052;BME280;53957;47.222;18.670;2023-04-20T00:32:58;100104.19;;;6.97;100.00
67052;BME280;53957;47.222;18.670;2023-04-20T00:36:01;100104.13;;;6.76;100.00
67052;BME280;53957;47.222;18.670;2023-04-20T00:39:04;100104.47;;;6.96;100.00
67052;BME280;53957;47.222;18.670;2023-04-20T00:42:08;100107.66;;;7.03;100.00
67052;BME280;53957;47.222;18.670;2023-04-20T00:45:11;100107.41;;;7.04;100.00
67052;BME280;53957;47.222;18.670;2023-04-20T00:48:34;100099.94;;;6.96;100.00
67052;BME280;53957;47.222;18.670;2023-04-20T00:51:38;100099.44;;;6.94;100.00
67052;BME280;53957;47.222;18.670;2023-04-20T00:54:45;100101.03;;;6.95;100.00
67052;BME280;53957;47.222;18.670;2023-04-20T00:57:51;100096.81;;;7.15;100.00
67052;BME280;53957;47.222;18.670;2023-04-20T01:00:54;100098.09;;;6.97;100.00
67052;BME280;53957;47.222;18.670;2023-04-20T01:04:00;100091.19;;;6.85;100.00
67052;BME280;53957;47.222;18.670;2023-04-20T01:07:04;100085.34;;;6.93;100.00
67052;BME280;53957;47.222;18.670;2023-04-20T01:10:27;100093.84;;;6.96;100.00
67052;BME280;53957;47.222;18.670;2023-04-20T01:13:30;100090.16;;;7.02;100.00
67052;BME280;53957;47.222;18.670;2023-04-20T01:16:33;100091.22;;;7.11;100.00
67052;BME280;53957;47.222;18.670;2023-04-20T01:19:40;100096.00;;;7.04;100.00
67052;BME280;53957;47.222;18.670;2023-04-20T01:22:51;100091.22;;;7.01;100.00
67052;BME280;53957;47.222;18.670;2023-04-20T01:26:05;100090.94;;;7.02;100.00
67052;BME280;53957;47.222;18.670;2023-04-20T01:29:10;100091.75;;;6.98;100.00
67052;BME280;53957;47.222;18.670;2023-04-20T01:32:15;100099.94;;;6.96;100.00
67052;BME280;53957;47.222;18.670;2023-04-20T01:35:18;100099.66;;;6.82;100.00
67052;BME280;53957;47.222;18.670;2023-04-20T01:38:22;100104.69;;;6.84;100.00
67052;BME280;53957;47.222;18.670;2023-04-20T01:41:28;100101.53;;;6.87;100.00
67052;BME280;53957;47.222;18.670;2023-04-20T01:44:32;100098.22;;;6.54;100.00
67052;BME280;53957;47.222;18.670;2023-04-20T01:47:35;100096.31;;;6.44;100.00
67052;BME280;53957;47.222;18.670;2023-04-20T01:50:44;100090.09;;;6.23;100.00
67052;BME280;53957;47.222;18.670;2023-04-20T01:53:47;100101.78;;;6.27;100.00
67052;BME280;53957;47.222;18.670;2023-04-20T01:56:53;100089.56;;;6.26;100.00
67052;BME280;53957;47.222;18.670;2023-04-20T01:59:56;100084.78;;;6.18;100.00
67052;BME280;53957;47.222;18.670;2023-04-20T02:03:39;100090.28;;;6.11;100.00
67052;BME280;53957;47.222;18.670;2023-04-20T02:06:42;100091.13;;;6.17;100.00
67052;BME280;53957;47.222;18.670;2023-04-20T02:09:47;100093.53;;;6.23;100.00
67052;BME280;53957;47.222;18.670;2023-04-20T02:12:50;100099.19;;;6.32;100.00
67052;BME280;53957;47.222;18.670;2023-04-20T02:15:56;100094.00;;;6.10;100.00
67052;BME280;53957;47.222;18.670;2023-04-20T02:18:59;100090.38;;;6.21;100.00
67052;BME280;53957;47.222;18.670;2023-04-20T02:22:02;100092.59;;;6.40;100.00
67052;BME280;53957;47.222;18.670;2023-04-20T02:25:07;100090.59;;;6.20;100.00
67052;BME280;53957;47.222;18.670;2023-04-20T02:28:11;100092.09;;;6.00;100.00
67052;BME280;53957;47.222;18.670;2023-04-20T02:31:15;100092.47;;;6.19;100.00
67052;BME280;53957;47.222;18.670;2023-04-20T02:34:19;100094.78;;;6.05;100.00
67052;BME280;53957;47.222;18.670;2023-04-20T02:37:22;100092.56;;;5.97;100.00
67052;BME280;53957;47.222;18.670;2023-04-20T02:40:25;100084.72;;;6.07;100.00
67052;BME280;53957;47.222;18.670;2023-04-20T02:43:29;100092.41;;;5.76;100.00
67052;BME280;53957;47.222;18.670;2023-04-20T02:46:32;100094.31;;;5.48;100.00
67052;BME280;53957;47.222;18.670;2023-04-20T02:49:36;100086.81;;;5.40;100.00
67052;BME280;53957;47.222;18.670;2023-04-20T02:52:39;100078.16;;;5.45;100.00
67052;BME280;53957;47.222;18.670;2023-04-20T02:55:43;100087.16;;;5.49;100.00
67052;BME280;53957;47.222;18.670;2023-04-20T02:58:47;100084.97;;;5.13;100.00
67052;BME280;53957;47.222;18.670;2023-04-20T03:01:51;100095.50;;;5.08;100.00
67052;BME280;53957;47.222;18.670;2023-04-20T03:04:58;100086.09;;;5.18;100.00
67052;BME280;53957;47.222;18.670;2023-04-20T03:08:01;100092.59;;;4.82;100.00
67052;BME280;53957;47.222;18.670;2023-04-20T03:11:07;100095.59;;;4.91;100.00
67052;BME280;53957;47.222;18.670;2023-04-20T03:14:11;100092.41;;;4.89;100.00
67052;BME280;53957;47.222;18.670;2023-04-20T03:17:14;100097.41;;;4.86;100.00
67052;BME280;53957;47.222;18.670;2023-04-20T03:20:17;100101.06;;;4.84;100.00
67052;BME280;53957;47.222;18.670;2023-04-20T03:23:22;100104.75;;;4.83;100.00
67052;BME280;53957;47.222;18.670;2023-04-20T03:26:25;100100.50;;;4.82;100.00
67052;BME280;53957;47.222;18.670;2023-04-20T03:29:30;100102.25;;;4.72;100.00
67052;BME280;53957;47.222;18.670;2023-04-20T03:32:36;100100.66;;;4.71;100.00
67052;BME280;53957;47.222;18.670;2023-04-20T03:35:39;100101.69;;;4.70;100.00
67052;BME280;53957;47.222;18.670;2023-04-20T03:38:45;100103.25;;;4.65;100.00
67052;BME280;53957;47.222;18.670;2023-04-20T03:41:48;100111.66;;;4.62;100.00
67052;BME280;53957;47.222;18.670;2023-04-20T03:44:51;100105.75;;;4.77;100.00
67052;BME280;53957;47.222;18.670;2023-04-20T03:48:14;100114.75;;;4.59;100.00
67052;BME280;53957;47.222;18.670;2023-04-20T03:51:17;100108.69;;;4.59;100.00
67052;BME280;53957;47.222;18.670;2023-04-20T03:54:20;100114.63;;;4.49;100.00
67052;BME280;53957;47.222;18.670;2023-04-20T03:57:23;100119.63;;;4.45;100.00
67052;BME280;53957;47.222;18.670;2023-04-20T04:00:26;100115.56;;;4.60;100.00
67052;BME280;53957;47.222;18.670;2023-04-20T04:03:33;100118.66;;;4.74;100.00
67052;BME280;53957;47.222;18.670;2023-04-20T04:06:36;100121.22;;;4.46;100.00
67052;BME280;53957;47.222;18.670;2023-04-20T04:09:39;100120.28;;;4.35;100.00
67052;BME280;53957;47.222;18.670;2023-04-20T04:12:42;100113.34;;;4.51;100.00
67052;BME280;53957;47.222;18.670;2023-04-20T04:15:46;100121.91;;;4.59;100.00
67052;BME280;53957;47.222;18.670;2023-04-20T04:18:49;100116.62;;;4.81;100.00
67052;BME280;53957;47.222;18.670;2023-04-20T04:21:53;100125.06;;;5.00;100.00
67052;BME280;53957;47.222;18.670;2023-04-20T04:25:12;100123.59;;;5.14;100.00
67052;BME280;53957;47.222;18.670;2023-04-20T04:28:16;100117.66;;;5.02;100.00
67052;BME280;53957;47.222;18.670;2023-04-20T04:31:28;100130.19;;;5.39;100.00
67052;BME280;53957;47.222;18.670;2023-04-20T04:34:34;100129.31;;;5.56;100.00
67052;BME280;53957;47.222;18.670;2023-04-20T04:37:37;100127.41;;;6.16;100.00
67052;BME280;53957;47.222;18.670;2023-04-20T04:40:40;100126.56;;;6.10;100.00
67052;BME280;53957;47.222;18.670;2023-04-20T04:44:04;100133.53;;;6.75;100.00
67052;BME280;53957;47.222;18.670;2023-04-20T04:47:08;100121.78;;;6.55;100.00
67052;BME280;53957;47.222;18.670;2023-04-20T04:50:13;100130.12;;;6.85;100.00
67052;BME280;53957;47.222;18.670;2023-04-20T04:53:16;100134.47;;;7.06;100.00
67052;BME280;53957;47.222;18.670;2023-04-20T04:56:21;100125.47;;;7.13;100.00
67052;BME280;53957;47.222;18.670;2023-04-20T04:59:25;100132.37;;;7.14;100.00
67052;BME280;53957;47.222;18.670;2023-04-20T05:02:28;100133.47;;;7.38;100.00
67052;BME280;53957;47.222;18.670;2023-04-20T05:05:32;100136.69;;;7.51;100.00
67052;BME280;53957;47.222;18.670;2023-04-20T05:08:36;100143.31;;;7.58;100.00
67052;BME280;53957;47.222;18.670;2023-04-20T05:11:40;100141.47;;;7.69;100.00
67052;BME280;53957;47.222;18.670;2023-04-20T05:14:43;100139.81;;;8.35;100.00
67052;BME280;53957;47.222;18.670;2023-04-20T05:17:45;100143.97;;;8.83;100.00
67052;BME280;53957;47.222;18.670;2023-04-20T05:21:01;100151.38;;;8.86;100.00
67052;BME280;53957;47.222;18.670;2023-04-20T05:24:04;100143.97;;;10.31;100.00
67052;BME280;53957;47.222;18.670;2023-04-20T05:27:08;100152.28;;;11.03;100.00
67052;BME280;53957;47.222;18.670;2023-04-20T05:30:15;100142.81;;;10.13;100.00
67052;BME280;53957;47.222;18.670;2023-04-20T05:33:23;100145.06;;;10.01;100.00
67052;BME280;53957;47.222;18.670;2023-04-20T05:36:28;100154.63;;;10.37;100.00
67052;BME280;53957;47.222;18.670;2023-04-20T05:39:31;100154.03;;;10.10;100.00
67052;BME280;53957;47.222;18.670;2023-04-20T05:42:34;100159.13;;;10.66;100.00
67052;BME280;53957;47.222;18.670;2023-04-20T05:45:39;100156.25;;;11.05;100.00
67052;BME280;53957;47.222;18.670;2023-04-20T05:48:42;100163.59;;;11.71;100.00
67052;BME280;53957;47.222;18.670;2023-04-20T05:51:45;100169.34;;;12.58;100.00
67052;BME280;53957;47.222;18.670;2023-04-20T05:55:08;100175.81;;;11.91;100.00
67052;BME280;53957;47.222;18.670;2023-04-20T05:58:11;100182.47;;;12.27;99.08
67052;BME280;53957;47.222;18.670;2023-04-20T06:01:18;100177.44;;;12.53;98.86
67052;BME280;53957;47.222;18.670;2023-04-20T06:04:22;100175.78;;;12.99;96.62
67052;BME280;53957;47.222;18.670;2023-04-20T06:07:27;100185.31;;;12.63;100.00
67052;BME280;53957;47.222;18.670;2023-04-20T06:10:30;100179.87;;;14.55;88.13
67052;BME280;53957;47.222;18.670;2023-04-20T06:13:35;100189.69;;;14.60;87.04
67052;BME280;53957;47.222;18.670;2023-04-20T06:16:39;100181.09;;;14.80;85.21
67052;BME280;53957;47.222;18.670;2023-04-20T06:19:42;100177.19;;;14.15;90.29
67052;BME280;53957;47.222;18.670;2023-04-20T06:22:45;100180.94;;;14.77;85.88
67052;BME280;53957;47.222;18.670;2023-04-20T06:25:48;100179.78;;;14.06;93.78
67052;BME280;53957;47.222;18.670;2023-04-20T06:28:51;100182.16;;;15.37;82.86
67052;BME280;53957;47.222;18.670;2023-04-20T06:31:57;100186.03;;;14.56;89.44
67052;BME280;53957;47.222;18.670;2023-04-20T06:35:00;100185.53;;;14.45;92.32
67052;BME280;53957;47.222;18.670;2023-04-20T06:38:03;100180.06;;;16.43;78.50
67052;BME280;53957;47.222;18.670;2023-04-20T06:41:07;100181.34;;;15.54;86.99
67052;BME280;53957;47.222;18.670;2023-04-20T06:44:10;100187.34;;;15.42;85.23
67052;BME280;53957;47.222;18.670;2023-04-20T06:47:37;100189.28;;;16.33;81.19
67052;BME280;53957;47.222;18.670;2023-04-20T06:50:40;100191.22;;;18.57;65.33
67052;BME280;53957;47.222;18.670;2023-04-20T14:54:36;100026.16;;;18.58;56.29
67052;BME280;53957;47.222;18.670;2023-04-20T14:57:38;100012.84;;;18.65;54.05
67052;BME280;53957;47.222;18.670;2023-04-20T15:00:42;100005.19;;;18.67;54.54
67052;BME280;53957;47.222;18.670;2023-04-20T15:03:46;100010.84;;;18.62;56.26
67052;BME280;53957;47.222;18.670;2023-04-20T15:06:50;100013.09;;;18.60;53.76
67052;BME280;53957;47.222;18.670;2023-04-20T15:09:53;100004.47;;;18.83;54.53
67052;BME280;53957;47.222;18.670;2023-04-20T15:12:56;100005.19;;;18.67;49.90
67052;BME280;53957;47.222;18.670;2023-04-20T15:15:59;100006.75;;;18.69;48.36
67052;BME280;53957;47.222;18.670;2023-04-20T15:19:01;100004.16;;;18.19;57.51
67052;BME280;53957;47.222;18.670;2023-04-20T15:22:04;99998.41;;;18.33;58.88
67052;BME280;53957;47.222;18.670;2023-04-20T15:25:08;99993.84;;;18.21;54.88
67052;BME280;53957;47.222;18.670;2023-04-20T15:28:11;99999.44;;;18.16;56.54
67052;BME280;53957;47.222;18.670;2023-04-20T15:31:17;99998.63;;;18.40;58.62
67052;BME280;53957;47.222;18.670;2023-04-20T15:34:20;100000.75;;;18.34;56.53
67052;BME280;53957;47.222;18.670;2023-04-20T15:37:23;100001.69;;;18.14;55.97
67052;BME280;53957;47.222;18.670;2023-04-20T15:40:27;99996.97;;;18.11;57.48
67052;BME280;53957;47.222;18.670;2023-04-20T15:43:30;99996.50;;;18.09;55.84
67052;BME280;53957;47.222;18.670;2023-04-20T15:46:33;99997.62;;;17.83;56.25
67052;BME280;53957;47.222;18.670;2023-04-20T15:49:35;99991.34;;;18.03;56.24
67052;BME280;53957;47.222;18.670;2023-04-20T15:52:42;99987.50;;;17.80;58.85
67052;BME280;53957;47.222;18.670;2023-04-20T15:55:45;99993.25;;;17.66;58.78
67052;BME280;53957;47.222;18.670;2023-04-20T15:58:49;99996.91;;;17.49;59.82
67052;BME280;53957;47.222;18.670;2023-04-20T16:02:11;99994.78;;;17.09;61.41
67052;BME280;53957;47.222;18.670;2023-04-20T16:05:14;99993.66;;;17.10;60.83
67052;BME280;53957;47.222;18.670;2023-04-20T16:08:17;99992.63;;;17.02;61.87
67052;BME280;53957;47.222;18.670;2023-04-20T16:11:22;99994.56;;;17.01;61.60
67052;BME280;53957;47.222;18.670;2023-04-20T16:14:26;99992.38;;;16.95;58.29
67052;BME280;53957;47.222;18.670;2023-04-20T16:17:28;99989.81;;;16.98;57.57
67052;BME280;53957;47.222;18.670;2023-04-20T16:20:34;99991.53;;;17.03;59.07
67052;BME280;53957;47.222;18.670;2023-04-20T16:23:38;99989.09;;;16.89;61.54
67052;BME280;53957;47.222;18.670;2023-04-20T16:26:41;99980.50;;;16.53;66.11
67052;BME280;53957;47.222;18.670;2023-04-20T16:29:45;99978.31;;;16.68;68.16
67052;BME280;53957;47.222;18.670;2023-04-20T16:32:48;99982.47;;;16.65;64.00
67052;BME280;53957;47.222;18.670;2023-04-20T16:35:51;99981.34;;;16.66;61.46
67052;BME280;53957;47.222;18.670;2023-04-20T16:38:54;99982.09;;;16.54;63.17
67052;BME280;53957;47.222;18.670;2023-04-20T16:41:57;99978.66;;;16.45;63.87
67052;BME280;53957;47.222;18.670;2023-04-20T16:45:00;99983.97;;;16.54;63.66
67052;BME280;53957;47.222;18.670;2023-04-20T16:48:04;99984.44;;;16.05;71.14
67052;BME280;53957;47.222;18.670;2023-04-20T16:51:06;99985.25;;;16.05;75.22
67052;BME280;53957;47.222;18.670;2023-04-20T16:54:10;99984.44;;;16.05;70.74
67052;BME280;53957;47.222;18.670;2023-04-20T16:57:14;99983.66;;;16.04;67.29
67052;BME280;53957;47.222;18.670;2023-04-20T17:00:17;99995.44;;;15.91;72.83
67052;BME280;53957;47.222;18.670;2023-04-20T17:03:20;99989.78;;;15.84;70.23
67052;BME280;53957;47.222;18.670;2023-04-20T17:06:24;99987.91;;;15.75;71.00
67052;BME280;53957;47.222;18.670;2023-04-20T17:09:27;99992.53;;;15.57;71.57
67052;BME280;53957;47.222;18.670;2023-04-20T17:12:30;99997.62;;;15.50;72.85
67052;BME280;53957;47.222;18.670;2023-04-20T17:15:33;100002.25;;;15.32;76.04
67052;BME280;53957;47.222;18.670;2023-04-20T17:18:37;100005.44;;;15.17;76.93
67052;BME280;53957;47.222;18.670;2023-04-20T17:21:43;100001.03;;;15.03;77.79
67052;BME280;53957;47.222;18.670;2023-04-20T17:24:47;100008.00;;;14.87;82.55
67052;BME280;53957;47.222;18.670;2023-04-20T17:27:52;100013.06;;;14.71;90.09
67052;BME280;53957;47.222;18.670;2023-04-20T17:30:56;100008.09;;;14.55;87.64
67052;BME280;53957;47.222;18.670;2023-04-20T17:33:59;100018.22;;;14.49;85.23
67052;BME280;53957;47.222;18.670;2023-04-20T17:37:02;100019.31;;;14.40;84.52
67052;BME280;53957;47.222;18.670;2023-04-20T17:40:05;100020.84;;;14.32;90.43
67052;BME280;53957;47.222;18.670;2023-04-20T17:43:09;100021.34;;;14.34;89.07
67052;BME280;53957;47.222;18.670;2023-04-20T17:46:12;100019.91;;;14.28;89.97
67052;BME280;53957;47.222;18.670;2023-04-20T17:49:16;100029.19;;;14.22;90.97
67052;BME280;53957;47.222;18.670;2023-04-20T17:52:18;100032.81;;;14.17;92.61
67052;BME280;53957;47.222;18.670;2023-04-20T17:55:23;100032.47;;;14.18;96.74
67052;BME280;53957;47.222;18.670;2023-04-20T17:58:26;100040.91;;;13.85;98.14
67052;BME280;53957;47.222;18.670;2023-04-20T18:01:29;100050.28;;;13.43;100.00
67052;BME280;53957;47.222;18.670;2023-04-20T18:04:36;100047.19;;;14.21;93.18
67052;BME280;53957;47.222;18.670;2023-04-20T18:07:40;100074.56;;;14.49;90.80
67052;BME280;53957;47.222;18.670;2023-04-20T18:10:43;100064.66;;;14.18;97.00
67052;BME280;53957;47.222;18.670;2023-04-20T18:13:47;100072.16;;;14.39;93.53
67052;BME280;53957;47.222;18.670;2023-04-20T18:16:50;100077.03;;;13.88;100.00
67052;BME280;53957;47.222;18.670;2023-04-20T18:19:53;100071.66;;;13.88;100.00
67052;BME280;53957;47.222;18.670;2023-04-20T18:22:57;100075.88;;;13.80;100.00
67052;BME280;53957;47.222;18.670;2023-04-20T18:25:59;100066.63;;;13.64;100.00
67052;BME280;53957;47.222;18.670;2023-04-20T18:29:03;100081.25;;;13.35;100.00
67052;BME280;53957;47.222;18.670;2023-04-20T18:32:06;100080.06;;;13.41;100.00
67052;BME280;53957;47.222;18.670;2023-04-20T18:35:10;100084.16;;;13.39;100.00
67052;BME280;53957;47.222;18.670;2023-04-20T18:38:13;100084.31;;;13.42;100.00
67052;BME280;53957;47.222;18.670;2023-04-20T18:41:16;100088.47;;;13.48;100.00
67052;BME280;53957;47.222;18.670;2023-04-20T18:44:19;100085.34;;;13.32;100.00
67052;BME280;53957;47.222;18.670;2023-04-20T18:47:23;100093.97;;;13.29;100.00
67052;BME280;53957;47.222;18.670;2023-04-20T18:50:27;100100.72;;;13.27;100.00
67052;BME280;53957;47.222;18.670;2023-04-20T18:53:30;100104.78;;;13.24;100.00
67052;BME280;53957;47.222;18.670;2023-04-20T18:56:35;100114.47;;;13.11;100.00
67052;BME280;53957;47.222;18.670;2023-04-20T18:59:40;100118.00;;;13.20;100.00
67052;BME280;53957;47.222;18.670;2023-04-20T19:02:43;100114.87;;;13.04;100.00
67052;BME280;53957;47.222;18.670;2023-04-20T19:05:46;100117.16;;;13.11;100.00
67052;BME280;53957;47.222;18.670;2023-04-20T19:08:57;100108.69;;;13.18;100.00
67052;BME280;53957;47.222;18.670;2023-04-20T19:12:00;100113.91;;;13.23;100.00
67052;BME280;53957;47.222;18.670;2023-04-20T19:15:04;100117.03;;;13.16;100.00
67052;BME280;53957;47.222;18.670;2023-04-20T19:18:27;100121.03;;;13.05;100.00
67052;BME280;53957;47.222;18.670;2023-04-20T19:21:50;100123.09;;;13.08;100.00
67052;BME280;53957;47.222;18.670;2023-04-20T19:24:53;100116.88;;;12.99;100.00
67052;BME280;53957;47.222;18.670;2023-04-20T19:27:56;100124.91;;;12.99;100.00
67052;BME280;53957;47.222;18.670;2023-04-20T19:31:17;100126.13;;;12.93;100.00
67052;BME280;53957;47.222;18.670;2023-04-20T19:34:20;100127.06;;;13.11;100.00
67052;BME280;53957;47.222;18.670;2023-04-20T19:37:23;100130.62;;;13.06;100.00
67052;BME280;53957;47.222;18.670;2023-04-20T19:40:27;100132.97;;;13.21;100.00
67052;BME280;53957;47.222;18.670;2023-04-20T19:43:30;100136.25;;;13.18;100.00
67052;BME280;53957;47.222;18.670;2023-04-20T19:46:37;100132.72;;;13.09;100.00
67052;BME280;53957;47.222;18.670;2023-04-20T19:49:42;100142.88;;;13.35;100.00
67052;BME280;53957;47.222;18.670;2023-04-20T19:52:45;100147.34;;;13.40;100.00
67052;BME280;53957;47.222;18.670;2023-04-20T19:55:48;100139.84;;;13.14;100.00
67052;BME280;53957;47.222;18.670;2023-04-20T19:58:51;100141.94;;;13.03;100.00
67052;BME280;53957;47.222;18.670;2023-04-20T20:01:54;100148.63;;;12.92;100.00
67052;BME280;53957;47.222;18.670;2023-04-20T20:05:18;100146.91;;;12.96;100.00
67052;BME280;53957;47.222;18.670;2023-04-20T20:08:20;100143.81;;;13.16;100.00
67052;BME280;53957;47.222;18.670;2023-04-20T20:11:23;100147.41;;;12.98;100.00
67052;BME280;53957;47.222;18.670;2023-04-20T20:14:27;100152.47;;;12.99;100.00
67052;BME280;53957;47.222;18.670;2023-04-20T20:17:30;100148.41;;;12.88;100.00
67052;BME280;53957;47.222;18.670;2023-04-20T20:20:33;100152.50;;;12.85;100.00
67052;BME280;53957;47.222;18.670;2023-04-20T20:23:36;100152.00;;;12.83;100.00
67052;BME280;53957;47.222;18.670;2023-04-20T20:26:59;100145.53;;;12.84;100.00
67052;BME280;53957;47.222;18.670;2023-04-20T20:30:02;100147.22;;;12.80;100.00
67052;BME280;53957;47.222;18.670;2023-04-20T20:33:08;100147.44;;;12.70;100.00
67052;BME280;53957;47.222;18.670;2023-04-20T20:36:11;100154.69;;;12.69;100.00
67052;BME280;53957;47.222;18.670;2023-04-20T20:39:14;100156.56;;;12.55;100.00
67052;BME280;53957;47.222;18.670;2023-04-20T20:42:18;100154.47;;;12.52;100.00
67052;BME280;53957;47.222;18.670;2023-04-20T20:45:23;100156.88;;;12.53;100.00
67052;BME280;53957;47.222;18.670;2023-04-20T20:48:26;100155.37;;;12.47;100.00
67052;BME280;53957;47.222;18.670;2023-04-20T20:51:29;100153.47;;;12.48;100.00
67052;BME280;53957;47.222;18.670;2023-04-20T20:54:33;100163.28;;;12.66;100.00
67052;BME280;53957;47.222;18.670;2023-04-20T20:57:36;100157.44;;;12.50;100.00
67052;BME280;53957;47.222;18.670;2023-04-20T21:00:39;100163.09;;;12.49;100.00
67052;BME280;53957;47.222;18.670;2023-04-20T21:03:42;100160.72;;;12.47;100.00
67052;BME280;53957;47.222;18.670;2023-04-20T21:06:45;100163.41;;;12.47;100.00
67052;BME280;53957;47.222;18.670;2023-04-20T21:09:48;100166.06;;;12.47;100.00
67052;BME280;53957;47.222;18.670;2023-04-20T21:12:51;100158.94;;;12.43;100.00
67052;BME280;53957;47.222;18.670;2023-04-20T21:15:54;100160.13;;;12.50;100.00
67052;BME280;53957;47.222;18.670;2023-04-20T21:18:58;100157.53;;;12.45;100.00
67052;BME280;53957;47.222;18.670;2023-04-20T21:22:01;100155.94;;;12.44;100.00
67052;BME280;53957;47.222;18.670;2023-04-20T21:25:04;100161.91;;;12.41;100.00
67052;BME280;53957;47.222;18.670;2023-04-20T21:28:07;100160.53;;;12.44;100.00
67052;BME280;53957;47.222;18.670;2023-04-20T21:31:10;100164.59;;;12.41;100.00
67052;BME280;53957;47.222;18.670;2023-04-20T21:34:13;100165.87;;;12.30;100.00
67052;BME280;53957;47.222;18.670;2023-04-20T21:37:17;100163.34;;;12.19;100.00
67052;BME280;53957;47.222;18.670;2023-04-20T21:40:19;100165.41;;;12.08;100.00
67052;BME280;53957;47.222;18.670;2023-04-20T21:43:22;100164.41;;;12.04;100.00
67052;BME280;53957;47.222;18.670;2023-04-20T21:46:30;100168.78;;;12.00;100.00
67052;BME280;53957;47.222;18.670;2023-04-20T21:49:34;100162.34;;;11.82;100.00
67052;BME280;53957;47.222;18.670;2023-04-20T21:52:37;100163.06;;;11.69;100.00
67052;BME280;53957;47.222;18.670;2023-04-20T21:55:40;100156.59;;;11.56;100.00
67052;BME280;53957;47.222;18.670;2023-04-20T21:58:43;100153.44;;;11.54;100.00
67052;BME280;53957;47.222;18.670;2023-04-20T22:01:47;100160.31;;;11.41;100.00
67052;BME280;53957;47.222;18.670;2023-04-20T22:04:50;100164.62;;;11.37;100.00
67052;BME280;53957;47.222;18.670;2023-04-20T22:07:53;100162.97;;;11.41;100.00
67052;BME280;53957;47.222;18.670;2023-04-20T22:10:56;100159.44;;;11.26;100.00
67052;BME280;53957;47.222;18.670;2023-04-20T22:13:58;100155.25;;;11.20;100.00
67052;BME280;53957;47.222;18.670;2023-04-20T22:17:02;100160.06;;;11.18;100.00
67052;BME280;53957;47.222;18.670;2023-04-20T22:20:08;100161.66;;;11.19;100.00
67052;BME280;53957;47.222;18.670;2023-04-20T22:23:11;100160.00;;;11.23;100.00
67052;BME280;53957;47.222;18.670;2023-04-20T22:26:14;100162.81;;;11.13;100.00
67052;BME280;53957;47.222;18.670;2023-04-20T22:29:17;100162.94;;;11.03;100.00
67052;BME280;53957;47.222;18.670;2023-04-20T22:32:21;100164.09;;;10.97;100.00
67052;BME280;53957;47.222;18.670;2023-04-20T22:35:24;100154.81;;;10.89;100.00
67052;BME280;53957;47.222;18.670;2023-04-20T22:38:27;100169.44;;;10.97;100.00
67052;BME280;53957;47.222;18.670;2023-04-20T22:41:30;100165.28;;;10.85;100.00
67052;BME280;53957;47.222;18.670;2023-04-20T22:44:33;100163.75;;;10.79;100.00
67052;BME280;53957;47.222;18.670;2023-04-20T22:47:37;100159.00;;;10.76;100.00
67052;BME280;53957;47.222;18.670;2023-04-20T22:50:40;100161.72;;;10.71;100.00
67052;BME280;53957;47.222;18.670;2023-04-20T22:53:43;100163.41;;;10.61;100.00
67052;BME280;53957;47.222;18.670;2023-04-20T22:56:46;100166.97;;;10.57;100.00
67052;BME280;53957;47.222;18.670;2023-04-20T22:59:49;100163.81;;;10.50;100.00
67052;BME280;53957;47.222;18.670;2023-04-20T23:02:52;100159.97;;;10.31;100.00
67052;BME280;53957;47.222;18.670;2023-04-20T23:05:55;100157.12;;;10.23;100.00
67052;BME280;53957;47.222;18.670;2023-04-20T23:08:59;100156.66;;;10.15;100.00
67052;BME280;53957;47.222;18.670;2023-04-20T23:12:06;100167.66;;;10.09;100.00
67052;BME280;53957;47.222;18.670;2023-04-20T23:15:11;100163.50;;;9.92;100.00
67052;BME280;53957;47.222;18.670;2023-04-20T23:18:15;100162.78;;;9.87;100.00
67052;BME280;53957;47.222;18.670;2023-04-20T23:21:18;100164.75;;;9.71;100.00
67052;BME280;53957;47.222;18.670;2023-04-20T23:24:21;100162.72;;;9.57;100.00
67052;BME280;53957;47.222;18.670;2023-04-20T23:27:23;100161.69;;;9.48;100.00
67052;BME280;53957;47.222;18.670;2023-04-20T23:30:26;100153.47;;;9.44;100.00
67052;BME280;53957;47.222;18.670;2023-04-20T23:33:29;100156.53;;;9.27;100.00
67052;BME280;53957;47.222;18.670;2023-04-20T23:36:32;100158.69;;;9.20;100.00
67052;BME280;53957;47.222;18.670;2023-04-20T23:39:36;100158.69;;;9.20;100.00
67052;BME280;53957;47.222;18.670;2023-04-20T23:42:39;100164.59;;;9.07;100.00
67052;BME280;53957;47.222;18.670;2023-04-20T23:45:42;100153.19;;;9.01;100.00
67052;BME280;53957;47.222;18.670;2023-04-20T23:48:45;100161.91;;;9.12;100.00
67052;BME280;53957;47.222;18.670;2023-04-20T23:51:50;100150.50;;;9.11;100.00